sensor_id;sensor_type;location;lat;lon;timestamp;temperature;humidity
46926;DHT22;32667;48.248;-1.700;2022-07-29T00:00:05;21.70;51.60
46926;DHT22;32667;48.248;-1.700;2022-07-29T00:02:31;21.70;51.60
46926;DHT22;32667;48.248;-1.700;2022-07-29T00:05:00;21.70;51.70
46926;DHT22;32667;48.248;-1.700;2022-07-29T00:07:26;21.60;51.60
46926;DHT22;32667;48.248;-1.700;2022-07-29T00:09:52;21.60;51.70
46926;DHT22;32667;48.248;-1.700;2022-07-29T00:12:19;21.60;51.70
46926;DHT22;32667;48.248;-1.700;2022-07-29T00:14:45;21.60;51.70
46926;DHT22;32667;48.248;-1.700;2022-07-29T00:17:10;21.60;51.70
46926;DHT22;32667;48.248;-1.700;2022-07-29T00:19:36;21.60;51.70
46926;DHT22;32667;48.248;-1.700;2022-07-29T00:22:02;21.60;51.60
46926;DHT22;32667;48.248;-1.700;2022-07-29T00:24:28;21.60;51.60
46926;DHT22;32667;48.248;-1.700;2022-07-29T00:26:53;21.60;51.60
46926;DHT22;32667;48.248;-1.700;2022-07-29T00:29:19;21.60;51.60
46926;DHT22;32667;48.248;-1.700;2022-07-29T00:31:45;21.60;51.60
46926;DHT22;32667;48.248;-1.700;2022-07-29T00:34:11;21.60;51.60
46926;DHT22;32667;48.248;-1.700;2022-07-29T00:36:56;21.60;51.60
46926;DHT22;32667;48.248;-1.700;2022-07-29T00:39:21;21.60;51.60
46926;DHT22;32667;48.248;-1.700;2022-07-29T00:41:47;21.60;51.60
46926;DHT22;32667;48.248;-1.700;2022-07-29T00:44:14;21.60;51.60
46926;DHT22;32667;48.248;-1.700;2022-07-29T00:46:40;21.60;51.60
46926;DHT22;32667;48.248;-1.700;2022-07-29T00:49:05;21.60;51.60
46926;DHT22;32667;48.248;-1.700;2022-07-29T00:51:35;21.60;51.60
46926;DHT22;32667;48.248;-1.700;2022-07-29T00:54:02;21.60;51.60
46926;DHT22;32667;48.248;-1.700;2022-07-29T00:56:31;21.60;51.60
46926;DHT22;32667;48.248;-1.700;2022-07-29T00:58:58;21.60;51.60
46926;DHT22;32667;48.248;-1.700;2022-07-29T01:01:24;21.60;51.60
46926;DHT22;32667;48.248;-1.700;2022-07-29T01:03:53;21.60;51.70
46926;DHT22;32667;48.248;-1.700;2022-07-29T01:06:19;21.60;51.60
46926;DHT22;32667;48.248;-1.700;2022-07-29T01:08:46;21.60;51.60
46926;DHT22;32667;48.248;-1.700;2022-07-29T01:11:13;21.60;51.60
46926;DHT22;32667;48.248;-1.700;2022-07-29T01:13:39;21.60;51.60
46926;DHT22;32667;48.248;-1.700;2022-07-29T01:16:18;21.60;51.60
46926;DHT22;32667;48.248;-1.700;2022-07-29T01:18:47;21.60;51.60
46926;DHT22;32667;48.248;-1.700;2022-07-29T01:24:16;21.60;51.60
46926;DHT22;32667;48.248;-1.700;2022-07-29T01:26:52;21.60;51.70
46926;DHT22;32667;48.248;-1.700;2022-07-29T01:29:32;21.60;51.60
46926;DHT22;32667;48.248;-1.700;2022-07-29T01:32:10;21.50;51.60
46926;DHT22;32667;48.248;-1.700;2022-07-29T01:34:50;21.50;51.60
46926;DHT22;32667;48.248;-1.700;2022-07-29T01:37:42;21.50;51.60
46926;DHT22;32667;48.248;-1.700;2022-07-29T01:43:21;21.50;51.60
46926;DHT22;32667;48.248;-1.700;2022-07-29T01:45:57;21.50;51.60
46926;DHT22;32667;48.248;-1.700;2022-07-29T01:48:37;21.50;51.70
46926;DHT22;32667;48.248;-1.700;2022-07-29T01:51:24;21.50;51.60
46926;DHT22;32667;48.248;-1.700;2022-07-29T01:56:35;21.40;51.60
46926;DHT22;32667;48.248;-1.700;2022-07-29T01:59:03;21.40;51.60
46926;DHT22;32667;48.248;-1.700;2022-07-29T02:01:31;21.40;51.60
46926;DHT22;32667;48.248;-1.700;2022-07-29T02:04:01;21.40;51.60
46926;DHT22;32667;48.248;-1.700;2022-07-29T02:06:30;21.40;51.60
46926;DHT22;32667;48.248;-1.700;2022-07-29T02:08:58;21.40;51.60
46926;DHT22;32667;48.248;-1.700;2022-07-29T02:11:25;21.40;51.60
46926;DHT22;32667;48.248;-1.700;2022-07-29T02:13:52;21.40;51.60
46926;DHT22;32667;48.248;-1.700;2022-07-29T02:16:21;21.30;51.60
46926;DHT22;32667;48.248;-1.700;2022-07-29T02:18:50;21.30;51.60
46926;DHT22;32667;48.248;-1.700;2022-07-29T02:21:21;21.30;51.60
46926;DHT22;32667;48.248;-1.700;2022-07-29T02:23:48;21.30;51.60
46926;DHT22;32667;48.248;-1.700;2022-07-29T02:26:18;21.30;51.60
46926;DHT22;32667;48.248;-1.700;2022-07-29T02:28:46;21.30;51.60
46926;DHT22;32667;48.248;-1.700;2022-07-29T02:31:13;21.30;51.60
46926;DHT22;32667;48.248;-1.700;2022-07-29T02:33:40;21.30;51.60
46926;DHT22;32667;48.248;-1.700;2022-07-29T02:36:07;21.30;51.60
46926;DHT22;32667;48.248;-1.700;2022-07-29T02:38:35;21.30;51.70
46926;DHT22;32667;48.248;-1.700;2022-07-29T02:41:35;21.20;51.60
46926;DHT22;32667;48.248;-1.700;2022-07-29T02:44:06;21.20;51.70
46926;DHT22;32667;48.248;-1.700;2022-07-29T02:46:36;21.20;51.70
46926;DHT22;32667;48.248;-1.700;2022-07-29T02:49:38;21.20;51.80
46926;DHT22;32667;48.248;-1.700;2022-07-29T02:52:26;21.20;51.80
46926;DHT22;32667;48.248;-1.700;2022-07-29T02:55:00;21.20;51.80
46926;DHT22;32667;48.248;-1.700;2022-07-29T02:57:32;21.10;51.70
46926;DHT22;32667;48.248;-1.700;2022-07-29T03:00:04;21.10;51.80
46926;DHT22;32667;48.248;-1.700;2022-07-29T03:02:34;21.10;51.80
46926;DHT22;32667;48.248;-1.700;2022-07-29T03:05:02;21.10;51.80
46926;DHT22;32667;48.248;-1.700;2022-07-29T03:07:29;21.10;51.70
46926;DHT22;32667;48.248;-1.700;2022-07-29T03:09:56;21.10;51.80
46926;DHT22;32667;48.248;-1.700;2022-07-29T03:12:22;21.10;51.70
46926;DHT22;32667;48.248;-1.700;2022-07-29T03:14:49;21.10;51.70
46926;DHT22;32667;48.248;-1.700;2022-07-29T03:17:15;21.10;51.70
46926;DHT22;32667;48.248;-1.700;2022-07-29T03:19:42;21.20;51.70
46926;DHT22;32667;48.248;-1.700;2022-07-29T03:22:08;21.10;51.70
46926;DHT22;32667;48.248;-1.700;2022-07-29T03:24:36;21.10;51.70
46926;DHT22;32667;48.248;-1.700;2022-07-29T03:27:05;21.10;51.70
46926;DHT22;32667;48.248;-1.700;2022-07-29T03:29:31;21.10;51.80
46926;DHT22;32667;48.248;-1.700;2022-07-29T03:31:57;21.20;51.80
46926;DHT22;32667;48.248;-1.700;2022-07-29T03:34:23;21.10;51.70
46926;DHT22;32667;48.248;-1.700;2022-07-29T03:36:49;21.20;52.40
46926;DHT22;32667;48.248;-1.700;2022-07-29T03:39:20;21.10;51.70
46926;DHT22;32667;48.248;-1.700;2022-07-29T03:41:49;21.20;51.70
46926;DHT22;32667;48.248;-1.700;2022-07-29T03:44:18;21.10;51.70
46926;DHT22;32667;48.248;-1.700;2022-07-29T03:46:46;21.10;51.70
46926;DHT22;32667;48.248;-1.700;2022-07-29T03:49:14;21.10;51.80
46926;DHT22;32667;48.248;-1.700;2022-07-29T03:51:42;21.10;51.80
46926;DHT22;32667;48.248;-1.700;2022-07-29T03:54:08;21.10;51.90
46926;DHT22;32667;48.248;-1.700;2022-07-29T03:56:38;21.10;51.90
46926;DHT22;32667;48.248;-1.700;2022-07-29T03:59:05;21.10;51.90
46926;DHT22;32667;48.248;-1.700;2022-07-29T04:01:33;21.10;51.90
46926;DHT22;32667;48.248;-1.700;2022-07-29T04:04:01;21.00;51.90
46926;DHT22;32667;48.248;-1.700;2022-07-29T04:06:27;21.10;51.90
46926;DHT22;32667;48.248;-1.700;2022-07-29T04:08:53;21.10;51.90
46926;DHT22;32667;48.248;-1.700;2022-07-29T04:11:19;21.10;52.00
46926;DHT22;32667;48.248;-1.700;2022-07-29T04:13:44;21.00;51.90
46926;DHT22;32667;48.248;-1.700;2022-07-29T04:16:10;21.00;51.90
46926;DHT22;32667;48.248;-1.700;2022-07-29T04:18:36;21.00;51.90
46926;DHT22;32667;48.248;-1.700;2022-07-29T04:21:02;21.00;51.90
46926;DHT22;32667;48.248;-1.700;2022-07-29T04:23:29;21.00;51.90
46926;DHT22;32667;48.248;-1.700;2022-07-29T04:25:58;21.00;51.80
46926;DHT22;32667;48.248;-1.700;2022-07-29T04:28:26;21.00;51.80
46926;DHT22;32667;48.248;-1.700;2022-07-29T04:30:52;21.10;51.90
46926;DHT22;32667;48.248;-1.700;2022-07-29T04:33:17;21.10;51.80
46926;DHT22;32667;48.248;-1.700;2022-07-29T04:35:43;21.10;51.80
46926;DHT22;32667;48.248;-1.700;2022-07-29T04:38:09;21.10;51.80
46926;DHT22;32667;48.248;-1.700;2022-07-29T04:40:35;21.10;51.80
46926;DHT22;32667;48.248;-1.700;2022-07-29T04:43:01;21.10;51.80
46926;DHT22;32667;48.248;-1.700;2022-07-29T04:45:27;21.10;51.80
46926;DHT22;32667;48.248;-1.700;2022-07-29T04:47:54;21.10;51.80
46926;DHT22;32667;48.248;-1.700;2022-07-29T04:50:20;21.10;51.80
46926;DHT22;32667;48.248;-1.700;2022-07-29T04:52:45;21.10;51.90
46926;DHT22;32667;48.248;-1.700;2022-07-29T04:55:11;21.00;51.80
46926;DHT22;32667;48.248;-1.700;2022-07-29T04:57:37;21.10;51.90
46926;DHT22;32667;48.248;-1.700;2022-07-29T05:00:05;21.00;51.80
46926;DHT22;32667;48.248;-1.700;2022-07-29T05:02:31;21.00;51.80
46926;DHT22;32667;48.248;-1.700;2022-07-29T05:04:56;21.00;51.90
46926;DHT22;32667;48.248;-1.700;2022-07-29T05:07:22;21.00;51.80
46926;DHT22;32667;48.248;-1.700;2022-07-29T05:09:48;21.10;52.50
46926;DHT22;32667;48.248;-1.700;2022-07-29T05:12:14;21.10;52.50
46926;DHT22;32667;48.248;-1.700;2022-07-29T05:14:39;21.10;51.80
46926;DHT22;32667;48.248;-1.700;2022-07-29T05:17:05;21.10;51.80
46926;DHT22;32667;48.248;-1.700;2022-07-29T05:19:31;21.10;51.80
46926;DHT22;32667;48.248;-1.700;2022-07-29T05:21:57;21.10;51.80
46926;DHT22;32667;48.248;-1.700;2022-07-29T05:24:25;21.10;51.80
46926;DHT22;32667;48.248;-1.700;2022-07-29T05:26:51;21.10;51.90
46926;DHT22;32667;48.248;-1.700;2022-07-29T05:29:17;21.10;51.80
46926;DHT22;32667;48.248;-1.700;2022-07-29T05:31:42;21.10;51.80
46926;DHT22;32667;48.248;-1.700;2022-07-29T05:34:08;21.10;51.80
46926;DHT22;32667;48.248;-1.700;2022-07-29T05:36:34;21.10;51.80
46926;DHT22;32667;48.248;-1.700;2022-07-29T05:38:59;21.20;51.80
46926;DHT22;32667;48.248;-1.700;2022-07-29T05:41:25;21.10;51.70
46926;DHT22;32667;48.248;-1.700;2022-07-29T05:43:51;21.20;51.70
46926;DHT22;32667;48.248;-1.700;2022-07-29T05:46:17;21.20;51.70
46926;DHT22;32667;48.248;-1.700;2022-07-29T05:48:43;21.20;51.70
46926;DHT22;32667;48.248;-1.700;2022-07-29T05:51:09;21.20;51.70
46926;DHT22;32667;48.248;-1.700;2022-07-29T05:53:35;21.20;51.70
46926;DHT22;32667;48.248;-1.700;2022-07-29T05:56:03;21.20;51.70
46926;DHT22;32667;48.248;-1.700;2022-07-29T05:58:30;21.20;51.60
46926;DHT22;32667;48.248;-1.700;2022-07-29T06:00:56;21.20;51.60
46926;DHT22;32667;48.248;-1.700;2022-07-29T06:03:25;21.30;51.60
46926;DHT22;32667;48.248;-1.700;2022-07-29T06:05:51;21.30;51.60
46926;DHT22;32667;48.248;-1.700;2022-07-29T06:08:16;21.30;51.60
46926;DHT22;32667;48.248;-1.700;2022-07-29T06:10:42;21.30;51.60
46926;DHT22;32667;48.248;-1.700;2022-07-29T06:13:09;21.30;51.60
46926;DHT22;32667;48.248;-1.700;2022-07-29T06:15:34;21.30;51.50
46926;DHT22;32667;48.248;-1.700;2022-07-29T06:18:01;21.40;51.60
46926;DHT22;32667;48.248;-1.700;2022-07-29T06:20:27;21.40;51.60
46926;DHT22;32667;48.248;-1.700;2022-07-29T06:22:55;21.40;51.50
46926;DHT22;32667;48.248;-1.700;2022-07-29T06:25:21;21.50;52.20
46926;DHT22;32667;48.248;-1.700;2022-07-29T06:27:47;21.50;51.40
46926;DHT22;32667;48.248;-1.700;2022-07-29T06:30:13;21.60;51.30
46926;DHT22;32667;48.248;-1.700;2022-07-29T06:32:39;21.70;51.20
46926;DHT22;32667;48.248;-1.700;2022-07-29T06:35:05;21.70;51.10
46926;DHT22;32667;48.248;-1.700;2022-07-29T06:37:31;21.80;51.10
46926;DHT22;32667;48.248;-1.700;2022-07-29T06:39:57;21.80;51.00
46926;DHT22;32667;48.248;-1.700;2022-07-29T06:42:44;21.90;51.00
46926;DHT22;32667;48.248;-1.700;2022-07-29T06:45:11;22.00;50.90
46926;DHT22;32667;48.248;-1.700;2022-07-29T06:47:37;22.10;50.80
46926;DHT22;32667;48.248;-1.700;2022-07-29T06:50:04;22.20;50.70
46926;DHT22;32667;48.248;-1.700;2022-07-29T06:52:30;22.30;50.60
46926;DHT22;32667;48.248;-1.700;2022-07-29T06:54:56;22.50;50.40
46926;DHT22;32667;48.248;-1.700;2022-07-29T06:57:21;22.70;50.20
46926;DHT22;32667;48.248;-1.700;2022-07-29T06:59:48;22.90;50.00
46926;DHT22;32667;48.248;-1.700;2022-07-29T07:02:14;22.90;49.80
46926;DHT22;32667;48.248;-1.700;2022-07-29T07:04:39;23.10;49.80
46926;DHT22;32667;48.248;-1.700;2022-07-29T07:07:05;23.20;49.70
46926;DHT22;32667;48.248;-1.700;2022-07-29T07:09:31;23.30;49.60
46926;DHT22;32667;48.248;-1.700;2022-07-29T07:11:57;23.40;49.70
46926;DHT22;32667;48.248;-1.700;2022-07-29T07:14:23;23.40;49.60
46926;DHT22;32667;48.248;-1.700;2022-07-29T07:16:49;23.40;50.30
46926;DHT22;32667;48.248;-1.700;2022-07-29T07:19:14;23.40;49.70
46926;DHT22;32667;48.248;-1.700;2022-07-29T07:21:43;23.50;49.70
46926;DHT22;32667;48.248;-1.700;2022-07-29T07:24:09;23.50;49.70
46926;DHT22;32667;48.248;-1.700;2022-07-29T07:26:35;23.60;49.70
46926;DHT22;32667;48.248;-1.700;2022-07-29T07:29:01;23.60;49.70
46926;DHT22;32667;48.248;-1.700;2022-07-29T07:31:27;23.60;49.70
46926;DHT22;32667;48.248;-1.700;2022-07-29T07:33:53;23.70;49.70
46926;DHT22;32667;48.248;-1.700;2022-07-29T07:36:19;23.80;50.30
46926;DHT22;32667;48.248;-1.700;2022-07-29T07:38:45;23.80;49.60
46926;DHT22;32667;48.248;-1.700;2022-07-29T07:41:11;23.90;49.60
46926;DHT22;32667;48.248;-1.700;2022-07-29T07:43:37;23.90;49.60
46926;DHT22;32667;48.248;-1.700;2022-07-29T07:46:03;24.00;49.60
46926;DHT22;32667;48.248;-1.700;2022-07-29T07:48:29;24.00;49.50
46926;DHT22;32667;48.248;-1.700;2022-07-29T07:50:55;24.10;49.50
46926;DHT22;32667;48.248;-1.700;2022-07-29T07:53:21;24.10;49.50
46926;DHT22;32667;48.248;-1.700;2022-07-29T07:55:47;24.10;49.50
46926;DHT22;32667;48.248;-1.700;2022-07-29T07:58:13;24.10;50.20
46926;DHT22;32667;48.248;-1.700;2022-07-29T08:00:39;24.20;49.60
46926;DHT22;32667;48.248;-1.700;2022-07-29T08:03:04;24.20;49.60
46926;DHT22;32667;48.248;-1.700;2022-07-29T08:05:30;24.20;49.50
46926;DHT22;32667;48.248;-1.700;2022-07-29T08:07:56;24.30;49.50
46926;DHT22;32667;48.248;-1.700;2022-07-29T08:10:22;24.30;49.50
46926;DHT22;32667;48.248;-1.700;2022-07-29T08:13:08;24.30;49.50
46926;DHT22;32667;48.248;-1.700;2022-07-29T08:15:35;24.40;49.60
46926;DHT22;32667;48.248;-1.700;2022-07-29T08:18:03;24.40;49.50
46926;DHT22;32667;48.248;-1.700;2022-07-29T08:20:29;24.50;49.50
46926;DHT22;32667;48.248;-1.700;2022-07-29T08:22:57;24.50;49.40
46926;DHT22;32667;48.248;-1.700;2022-07-29T08:25:23;24.50;49.40
46926;DHT22;32667;48.248;-1.700;2022-07-29T08:27:49;24.60;49.50
46926;DHT22;32667;48.248;-1.700;2022-07-29T08:30:15;24.70;49.40
46926;DHT22;32667;48.248;-1.700;2022-07-29T08:32:41;24.80;49.30
46926;DHT22;32667;48.248;-1.700;2022-07-29T08:35:07;24.80;49.30
46926;DHT22;32667;48.248;-1.700;2022-07-29T08:37:33;24.80;49.30
46926;DHT22;32667;48.248;-1.700;2022-07-29T08:39:59;24.80;49.30
46926;DHT22;32667;48.248;-1.700;2022-07-29T08:42:25;24.90;49.40
46926;DHT22;32667;48.248;-1.700;2022-07-29T08:44:51;24.90;49.30
46926;DHT22;32667;48.248;-1.700;2022-07-29T08:47:19;24.90;49.30
46926;DHT22;32667;48.248;-1.700;2022-07-29T08:49:45;25.00;49.30
46926;DHT22;32667;48.248;-1.700;2022-07-29T08:52:14;25.00;49.40
46926;DHT22;32667;48.248;-1.700;2022-07-29T08:54:43;24.90;49.40
46926;DHT22;32667;48.248;-1.700;2022-07-29T08:57:13;24.90;49.50
46926;DHT22;32667;48.248;-1.700;2022-07-29T08:59:40;24.90;49.50
46926;DHT22;32667;48.248;-1.700;2022-07-29T09:02:12;24.90;49.50
46926;DHT22;32667;48.248;-1.700;2022-07-29T09:04:41;25.00;49.50
46926;DHT22;32667;48.248;-1.700;2022-07-29T09:07:08;25.00;49.50
46926;DHT22;32667;48.248;-1.700;2022-07-29T09:09:34;25.00;49.50
46926;DHT22;32667;48.248;-1.700;2022-07-29T09:12:01;25.00;49.40
46926;DHT22;32667;48.248;-1.700;2022-07-29T09:14:26;25.10;49.50
46926;DHT22;32667;48.248;-1.700;2022-07-29T09:16:54;25.20;49.40
46926;DHT22;32667;48.248;-1.700;2022-07-29T09:19:29;25.20;49.30
46926;DHT22;32667;48.248;-1.700;2022-07-29T09:21:57;25.40;49.20
46926;DHT22;32667;48.248;-1.700;2022-07-29T09:24:24;25.50;49.10
46926;DHT22;32667;48.248;-1.700;2022-07-29T09:26:50;25.60;49.00
46926;DHT22;32667;48.248;-1.700;2022-07-29T09:29:35;25.70;49.00
46926;DHT22;32667;48.248;-1.700;2022-07-29T09:32:05;25.70;48.90
46926;DHT22;32667;48.248;-1.700;2022-07-29T09:34:31;25.70;48.90
46926;DHT22;32667;48.248;-1.700;2022-07-29T09:36:57;25.70;48.90
46926;DHT22;32667;48.248;-1.700;2022-07-29T09:39:30;25.80;48.90
46926;DHT22;32667;48.248;-1.700;2022-07-29T09:41:58;25.80;48.90
46926;DHT22;32667;48.248;-1.700;2022-07-29T09:44:24;25.80;48.90
46926;DHT22;32667;48.248;-1.700;2022-07-29T09:47:00;25.90;49.00
46926;DHT22;32667;48.248;-1.700;2022-07-29T09:49:36;26.00;49.50
46926;DHT22;32667;48.248;-1.700;2022-07-29T09:52:15;26.00;48.80
46926;DHT22;32667;48.248;-1.700;2022-07-29T09:54:42;26.00;48.80
46926;DHT22;32667;48.248;-1.700;2022-07-29T09:57:09;26.00;48.90
46926;DHT22;32667;48.248;-1.700;2022-07-29T10:00:08;26.00;48.90
46926;DHT22;32667;48.248;-1.700;2022-07-29T10:02:36;26.10;49.00
46926;DHT22;32667;48.248;-1.700;2022-07-29T10:05:04;26.10;48.80
46926;DHT22;32667;48.248;-1.700;2022-07-29T10:07:53;26.20;48.80
46926;DHT22;32667;48.248;-1.700;2022-07-29T10:10:30;26.30;48.80
46926;DHT22;32667;48.248;-1.700;2022-07-29T10:12:58;26.30;48.70
46926;DHT22;32667;48.248;-1.700;2022-07-29T10:15:26;26.40;48.80
46926;DHT22;32667;48.248;-1.700;2022-07-29T10:17:54;26.40;48.70
46926;DHT22;32667;48.248;-1.700;2022-07-29T10:20:21;26.50;48.70
46926;DHT22;32667;48.248;-1.700;2022-07-29T10:22:49;26.50;48.60
46926;DHT22;32667;48.248;-1.700;2022-07-29T10:25:16;26.50;48.60
46926;DHT22;32667;48.248;-1.700;2022-07-29T10:27:43;26.60;48.70
46926;DHT22;32667;48.248;-1.700;2022-07-29T10:30:10;26.60;48.70
46926;DHT22;32667;48.248;-1.700;2022-07-29T10:38:48;26.70;48.70
46926;DHT22;32667;48.248;-1.700;2022-07-29T10:44:21;26.60;48.80
46926;DHT22;32667;48.248;-1.700;2022-07-29T10:46:48;26.50;48.90
46926;DHT22;32667;48.248;-1.700;2022-07-29T10:49:16;26.50;49.00
46926;DHT22;32667;48.248;-1.700;2022-07-29T10:52:02;26.50;49.00
46926;DHT22;32667;48.248;-1.700;2022-07-29T10:54:49;26.50;49.00
46926;DHT22;32667;48.248;-1.700;2022-07-29T10:59:43;26.40;49.20
46926;DHT22;32667;48.248;-1.700;2022-07-29T11:05:03;26.40;49.20
46926;DHT22;32667;48.248;-1.700;2022-07-29T11:07:29;26.40;49.20
46926;DHT22;32667;48.248;-1.700;2022-07-29T11:15:16;26.40;49.30
46926;DHT22;32667;48.248;-1.700;2022-07-29T11:20:38;26.40;49.30
46926;DHT22;32667;48.248;-1.700;2022-07-29T11:31:52;26.40;49.10
46926;DHT22;32667;48.248;-1.700;2022-07-29T11:39:45;26.50;49.00
46926;DHT22;32667;48.248;-1.700;2022-07-29T11:45:14;26.70;48.90
46926;DHT22;32667;48.248;-1.700;2022-07-29T11:47:52;26.90;48.80
46926;DHT22;32667;48.248;-1.700;2022-07-29T11:50:37;26.90;48.70
46926;DHT22;32667;48.248;-1.700;2022-07-29T11:53:10;26.90;48.60
46926;DHT22;32667;48.248;-1.700;2022-07-29T11:55:39;27.00;48.60
46926;DHT22;32667;48.248;-1.700;2022-07-29T11:58:05;27.10;48.50
46926;DHT22;32667;48.248;-1.700;2022-07-29T12:00:39;27.20;48.40
46926;DHT22;32667;48.248;-1.700;2022-07-29T12:03:27;27.40;49.00
46926;DHT22;32667;48.248;-1.700;2022-07-29T12:05:55;27.50;48.30
46926;DHT22;32667;48.248;-1.700;2022-07-29T12:08:22;27.50;48.20
46926;DHT22;32667;48.248;-1.700;2022-07-29T12:10:51;27.60;48.20
46926;DHT22;32667;48.248;-1.700;2022-07-29T12:13:19;27.70;48.20
46926;DHT22;32667;48.248;-1.700;2022-07-29T12:15:56;27.80;48.10
46926;DHT22;32667;48.248;-1.700;2022-07-29T12:18:23;28.00;47.90
46926;DHT22;32667;48.248;-1.700;2022-07-29T12:20:59;28.20;47.70
46926;DHT22;32667;48.248;-1.700;2022-07-29T12:23:25;28.40;47.60
46926;DHT22;32667;48.248;-1.700;2022-07-29T12:25:51;28.50;47.50
46926;DHT22;32667;48.248;-1.700;2022-07-29T12:28:17;28.60;47.40
46926;DHT22;32667;48.248;-1.700;2022-07-29T12:30:49;28.70;47.50
46926;DHT22;32667;48.248;-1.700;2022-07-29T12:33:25;28.70;47.40
46926;DHT22;32667;48.248;-1.700;2022-07-29T12:36:16;28.70;47.50
46926;DHT22;32667;48.248;-1.700;2022-07-29T12:38:41;28.80;47.50
46926;DHT22;32667;48.248;-1.700;2022-07-29T12:41:07;28.90;47.50
46926;DHT22;32667;48.248;-1.700;2022-07-29T12:43:33;29.00;47.40
46926;DHT22;32667;48.248;-1.700;2022-07-29T12:46:12;29.20;47.40
46926;DHT22;32667;48.248;-1.700;2022-07-29T12:48:40;29.30;47.20
46926;DHT22;32667;48.248;-1.700;2022-07-29T12:51:07;29.40;47.20
46926;DHT22;32667;48.248;-1.700;2022-07-29T12:53:37;29.50;47.20
46926;DHT22;32667;48.248;-1.700;2022-07-29T12:56:05;29.60;47.20
46926;DHT22;32667;48.248;-1.700;2022-07-29T12:58:39;29.70;47.20
46926;DHT22;32667;48.248;-1.700;2022-07-29T13:01:09;29.80;47.10
46926;DHT22;32667;48.248;-1.700;2022-07-29T13:03:56;29.90;46.90
46926;DHT22;32667;48.248;-1.700;2022-07-29T13:06:42;30.00;46.90
46926;DHT22;32667;48.248;-1.700;2022-07-29T13:09:12;30.10;46.90
46926;DHT22;32667;48.248;-1.700;2022-07-29T13:11:46;30.30;46.80
46926;DHT22;32667;48.248;-1.700;2022-07-29T13:14:30;30.50;46.70
46926;DHT22;32667;48.248;-1.700;2022-07-29T13:22:38;31.10;46.30
46926;DHT22;32667;48.248;-1.700;2022-07-29T13:25:04;31.40;46.30
46926;DHT22;32667;48.248;-1.700;2022-07-29T13:27:33;31.70;46.10
46926;DHT22;32667;48.248;-1.700;2022-07-29T13:30:02;31.90;45.80
46926;DHT22;32667;48.248;-1.700;2022-07-29T13:32:30;32.10;45.80
46926;DHT22;32667;48.248;-1.700;2022-07-29T13:34:57;32.30;45.70
46926;DHT22;32667;48.248;-1.700;2022-07-29T13:37:24;32.40;45.60
46926;DHT22;32667;48.248;-1.700;2022-07-29T13:39:51;32.60;45.70
46926;DHT22;32667;48.248;-1.700;2022-07-29T13:42:18;32.70;45.60
46926;DHT22;32667;48.248;-1.700;2022-07-29T13:44:44;32.90;45.60
46926;DHT22;32667;48.248;-1.700;2022-07-29T13:47:09;33.00;45.50
46926;DHT22;32667;48.248;-1.700;2022-07-29T13:49:35;33.00;45.70
46926;DHT22;32667;48.248;-1.700;2022-07-29T13:52:02;32.80;45.90
46926;DHT22;32667;48.248;-1.700;2022-07-29T13:54:28;32.80;46.10
46926;DHT22;32667;48.248;-1.700;2022-07-29T13:56:54;32.60;46.30
46926;DHT22;32667;48.248;-1.700;2022-07-29T13:59:20;32.40;46.50
46926;DHT22;32667;48.248;-1.700;2022-07-29T14:01:46;32.10;46.90
46926;DHT22;32667;48.248;-1.700;2022-07-29T14:04:11;32.10;47.20
46926;DHT22;32667;48.248;-1.700;2022-07-29T14:06:37;32.20;47.00
46926;DHT22;32667;48.248;-1.700;2022-07-29T14:09:04;32.40;47.00
46926;DHT22;32667;48.248;-1.700;2022-07-29T14:11:34;32.40;46.90
46926;DHT22;32667;48.248;-1.700;2022-07-29T14:14:00;32.50;46.90
46926;DHT22;32667;48.248;-1.700;2022-07-29T14:16:26;32.60;46.70
46926;DHT22;32667;48.248;-1.700;2022-07-29T14:18:51;32.70;46.70
46926;DHT22;32667;48.248;-1.700;2022-07-29T14:21:17;32.50;46.80
46926;DHT22;32667;48.248;-1.700;2022-07-29T14:23:44;32.40;47.10
46926;DHT22;32667;48.248;-1.700;2022-07-29T14:26:10;32.40;47.10
46926;DHT22;32667;48.248;-1.700;2022-07-29T14:28:35;32.50;47.00
46926;DHT22;32667;48.248;-1.700;2022-07-29T14:31:01;32.30;47.20
46926;DHT22;32667;48.248;-1.700;2022-07-29T14:33:27;32.00;47.60
46926;DHT22;32667;48.248;-1.700;2022-07-29T14:35:53;32.10;47.70
46926;DHT22;32667;48.248;-1.700;2022-07-29T14:38:19;32.20;47.40
46926;DHT22;32667;48.248;-1.700;2022-07-29T14:40:44;32.30;47.20
46926;DHT22;32667;48.248;-1.700;2022-07-29T14:43:12;32.20;47.20
46926;DHT22;32667;48.248;-1.700;2022-07-29T14:45:39;32.00;47.40
46926;DHT22;32667;48.248;-1.700;2022-07-29T14:48:05;31.70;47.90
46926;DHT22;32667;48.248;-1.700;2022-07-29T14:50:31;31.50;48.80
46926;DHT22;32667;48.248;-1.700;2022-07-29T14:55:39;31.80;47.80
46926;DHT22;32667;48.248;-1.700;2022-07-29T14:58:05;32.00;47.60
46926;DHT22;32667;48.248;-1.700;2022-07-29T15:00:31;32.00;47.50
46926;DHT22;32667;48.248;-1.700;2022-07-29T15:02:59;31.80;47.60
46926;DHT22;32667;48.248;-1.700;2022-07-29T15:05:26;31.60;47.70
46926;DHT22;32667;48.248;-1.700;2022-07-29T15:07:52;31.60;47.90
46926;DHT22;32667;48.248;-1.700;2022-07-29T15:10:18;31.60;47.90
46926;DHT22;32667;48.248;-1.700;2022-07-29T15:12:43;31.60;47.90
46926;DHT22;32667;48.248;-1.700;2022-07-29T15:15:09;31.60;47.90
46926;DHT22;32667;48.248;-1.700;2022-07-29T15:17:35;31.50;47.80
46926;DHT22;32667;48.248;-1.700;2022-07-29T15:20:01;31.40;47.80
46926;DHT22;32667;48.248;-1.700;2022-07-29T15:22:27;31.40;47.80
46926;DHT22;32667;48.248;-1.700;2022-07-29T15:24:53;31.40;47.90
46926;DHT22;32667;48.248;-1.700;2022-07-29T15:27:19;31.30;47.90
46926;DHT22;32667;48.248;-1.700;2022-07-29T15:29:44;31.30;48.00
46926;DHT22;32667;48.248;-1.700;2022-07-29T15:32:10;31.20;48.00
46926;DHT22;32667;48.248;-1.700;2022-07-29T15:34:37;31.10;48.00
46926;DHT22;32667;48.248;-1.700;2022-07-29T15:37:04;31.10;48.20
46926;DHT22;32667;48.248;-1.700;2022-07-29T15:39:30;31.00;48.10
46926;DHT22;32667;48.248;-1.700;2022-07-29T15:41:56;31.00;48.20
46926;DHT22;32667;48.248;-1.700;2022-07-29T15:44:21;31.00;48.20
46926;DHT22;32667;48.248;-1.700;2022-07-29T15:46:48;31.00;48.10
46926;DHT22;32667;48.248;-1.700;2022-07-29T15:49:39;30.90;48.20
46926;DHT22;32667;48.248;-1.700;2022-07-29T15:52:07;30.70;48.30
46926;DHT22;32667;48.248;-1.700;2022-07-29T15:54:35;30.70;48.50
46926;DHT22;32667;48.248;-1.700;2022-07-29T15:57:04;30.60;48.50
46926;DHT22;32667;48.248;-1.700;2022-07-29T15:59:31;30.70;48.50
46926;DHT22;32667;48.248;-1.700;2022-07-29T16:01:57;30.70;48.40
46926;DHT22;32667;48.248;-1.700;2022-07-29T16:04:23;30.70;48.30
46926;DHT22;32667;48.248;-1.700;2022-07-29T16:06:49;30.70;48.20
46926;DHT22;32667;48.248;-1.700;2022-07-29T16:09:16;30.80;48.10
46926;DHT22;32667;48.248;-1.700;2022-07-29T16:11:43;30.80;48.10
46926;DHT22;32667;48.248;-1.700;2022-07-29T16:14:09;30.80;48.10
46926;DHT22;32667;48.248;-1.700;2022-07-29T16:16:36;30.70;48.00
46926;DHT22;32667;48.248;-1.700;2022-07-29T16:19:02;30.70;48.20